Time;durP1;ratioP1;P1;durP2;ratioP2;P2;SDS_P1;SDS_P2;PMS_P1;PMS_P2;Temp;Humidity;BMP_temperature;BMP_pressure;BME280_temperature;BME280_humidity;BME280_pressure;Samples;Min_cycle;Max_cycle;Signal;HPM_P1;HPM_P2
2022/10/18 00:10:13;;;;;;;86.63;38.30;;;;;;;;;;6278043;22;20031;-88
2022/10/18 00:12:43;;;;;;;93.55;42.20;;;;;;;;;;6220458;22;20045;-92
2022/10/18 00:15:30;;;;;;;88.15;38.30;;;12.60;99.90;;;;;;6273396;22;20102;-93
2022/10/18 00:18:15;;;;;;;95.43;39.45;;;;;;;;;;6220040;22;20349;-94
2022/10/18 00:20:42;;;;;;;100.85;40.92;;;;;;;;;;6200504;22;20160;-91
2022/10/18 00:27:10;;;;;;;84.78;40.08;;;;;;;;;;6291501;22;20053;-93
2022/10/18 00:29:55;;;;;;;86.70;37.58;;;;;;;;;;6252360;22;20075;-92
2022/10/18 00:38:10;;;;;;;110.85;44.03;;;;;;;;;;6306450;22;20080;-92
2022/10/18 00:40:43;;;;;;;101.18;40.28;;;;;;;;;;6187154;23;20020;-89
2022/10/18 00:46:16;;;;;;;81.57;36.50;;;;;;;;;;6267106;22;20046;-91
2022/10/18 01:03:52;;;;;;;87.45;32.60;;;;;;;;;;6344870;22;20080;-89
2022/10/18 01:06:18;;;;;;;75.95;31.88;;;;;;;;;;6241194;23;20024;-90
2022/10/18 01:11:44;;;;;;;124.00;38.17;;;;;;;;;;6300025;22;20855;-90
2022/10/18 01:14:32;;;;;;;238.55;33.80;;;;;;;;;;6245019;22;20015;-87
2022/10/18 01:17:25;;;;;;;411.38;47.13;;;;;;;;;;6270837;22;20023;-90
2022/10/18 01:20:18;;;;;;;352.20;43.00;;;;;;;;;;6234902;22;20485;-89
2022/10/18 01:23:03;;;;;;;252.10;38.90;;;;;;;;;;6189300;23;20016;-90
2022/10/18 01:35:19;;;;;;;206.52;38.38;;;;;;;;;;6208999;23;20095;-90
2022/10/18 01:38:04;;;;;;;230.50;44.63;;;;;;;;;;6185049;23;20019;-91
2022/10/18 01:40:31;;;;;;;252.90;42.38;;;;;;;;;;6183608;23;20024;-90
2022/10/18 01:43:22;;;;;;;241.82;42.25;;;;;;;;;;6235157;22;20011;-89
2022/10/18 01:52:18;;;;;;;335.52;45.70;;;;;;;;;;6251106;22;20054;31
2022/10/18 02:31:34;;;;;;;327.73;48.42;;;;;;;;;;6307987;22;20023;-89
2022/10/18 02:34:14;;;;;;;367.02;51.08;;;;;;;;;;6282600;22;20321;-91
2022/10/18 02:42:41;;;;;;;365.98;54.72;;;;;;;;;;6247134;22;20032;-91
2022/10/18 02:45:28;;;;;;;413.85;52.17;;;12.90;99.90;;;;;;6223219;22;20388;-91
2022/10/18 02:48:14;;;;;;;319.52;50.08;;;;;;;;;;6255716;22;20029;-90
2022/10/18 02:51:12;;;;;;;303.90;48.22;;;;;;;;;;6309154;22;20355;-92
2022/10/18 02:54:07;;;;;;;319.05;48.67;;;;;;;;;;6307207;22;20038;-90
2022/10/18 03:09:41;;;;;;;352.45;49.40;;;;;;;;;;6306697;22;20127;-90
2022/10/18 03:14:58;;;;;;;303.80;48.47;;;;;;;;;;6336459;22;20027;-92
2022/10/18 03:17:39;;;;;;;388.17;49.60;;;;;;;;;;6284245;22;20025;-90
2022/10/18 03:23:14;;;;;;;439.10;51.30;;;;;;;;;;6323767;22;21726;-90
2022/10/18 03:25:40;;;;;;;457.75;51.70;;;;;;;;;;6276898;22;20130;-92
2022/10/18 03:55:28;;;;;;;272.17;38.85;;;;;;;;;;6289801;22;20029;-89
2022/10/18 04:05:09;;;;;;;357.08;42.70;;;;;;;;;;6243067;22;20099;-88
2022/10/18 04:07:51;;;;;;;194.75;34.22;;;;;;;;;;6269301;22;20020;-89
2022/10/18 04:13:34;;;;;;;336.45;40.85;;;;;;;;;;6268125;22;20023;-89
2022/10/18 04:16:12;;;;;;;261.17;37.00;;;;;;;;;;6270247;22;20043;-90
2022/10/18 04:28:38;;;;;;;224.20;35.25;;;;;;;;;;6270788;22;20162;-89
2022/10/18 04:31:45;;;;;;;266.95;38.28;;;;;;;;;;6256198;22;20023;-88
2022/10/18 04:34:11;;;;;;;322.98;43.17;;;;;;;;;;6331009;22;20336;-88
2022/10/18 04:39:19;;;;;;;246.98;37.63;;;;;;;;;;6336341;22;20023;-88
2022/10/18 04:41:45;;;;;;;271.77;39.20;;;;;;;;;;6334574;22;20030;-89
2022/10/18 04:44:41;;;;;;;177.38;34.67;;;;;;;;;;6255971;22;20019;-91
2022/10/18 04:56:49;;;;;;;170.13;33.30;;;;;;;;;;6334934;22;20018;-91
2022/10/18 04:59:17;;;;;;;139.63;32.30;;;;;;;;;;6280515;22;20076;-88
2022/10/18 05:04:44;;;;;;;217.27;33.90;;;;;;;;;;6323989;22;20065;-89
2022/10/18 05:13:29;;;;;;;181.82;30.23;;;;;;;;;;6330256;22;20027;-90
2022/10/18 05:18:29;;;;;;;163.48;30.50;;;;;;;;;;6351737;22;20111;-88
2022/10/18 05:35:15;;;;;;;119.15;25.55;;;;;;;;;;6279066;22;20051;-95
2022/10/18 05:38:38;;;;;;;193.60;32.53;;;11.80;99.90;;;;;;6241902;22;20030;-90
2022/10/18 05:41:05;;;;;;;142.95;30.80;;;;;;;;;;6271886;22;20063;-90
2022/10/18 05:47:06;;;;;;;190.93;32.90;;;;;;;;;;6270941;22;20038;-89
2022/10/18 06:00:34;;;;;;;166.27;29.02;;;11.60;99.90;;;;;;6334582;22;20366;-90
2022/10/18 06:03:13;;;;;;;129.82;29.02;;;;;;;;;;6305345;22;20023;-90
2022/10/18 06:05:54;;;;;;;250.63;31.40;;;;;;;;;;6257417;22;20375;-90
2022/10/18 06:08:23;;;;;;;223.27;29.50;;;;;;;;;;6258397;22;20019;-89
2022/10/18 06:11:09;;;;;;;313.38;34.03;;;;;;;;;;6336783;22;20022;-91
2022/10/18 06:13:42;;;;;;;268.65;32.67;;;;;;;;;;6281396;22;20083;-89
2022/10/18 06:16:08;;;;;;;232.25;31.25;;;;;;;;;;6309033;22;20109;-91
2022/10/18 06:18:51;;;;;;;295.48;28.25;;;;;;;;;;6281886;22;20006;-91
2022/10/18 06:24:00;;;;;;;123.57;22.73;;;;;;;;;;6311884;22;20035;-91
2022/10/18 06:29:56;;;;;;;155.50;24.90;;;;;;;;;;6304203;22;20067;-89
2022/10/18 06:32:22;;;;;;;162.18;27.95;;;;;;;;;;6304128;22;20444;-90
2022/10/18 06:35:07;;;;;;;191.13;27.13;;;;;;;;;;6277934;22;20111;-89
2022/10/18 06:37:34;;;;;;;167.75;27.77;;;;;;;;;;6305701;22;20105;-90
2022/10/18 06:40:00;;;;;;;237.57;28.90;;;;;;;;;;6278065;22;20321;-90
2022/10/18 06:42:35;;;;;;;258.65;29.77;;;;;;;;;;6281253;22;20097;-91
2022/10/18 06:45:26;;;;;;;259.88;28.10;;;;;;;;;;6303008;22;20120;-90
2022/10/18 06:48:02;;;;;;;250.68;26.85;;;;;;;;;;6276776;22;20030;-90
2022/10/18 06:50:34;;;;;;;227.95;26.13;;;;;;;;;;6279596;22;20431;-89
2022/10/18 06:53:13;;;;;;;180.32;28.17;;;;;;;;;;6331290;22;20019;-90
2022/10/18 06:56:16;;;;;;;196.52;24.45;;;;;;;;;;6254291;22;20018;-90
2022/10/18 06:58:42;;;;;;;255.15;26.60;;;;;;;;;;6249673;22;20079;-91
2022/10/18 07:01:15;;;;;;;178.65;23.20;;;;;;;;;;6302890;22;20026;-91
2022/10/18 07:06:55;;;;;;;217.82;24.80;;;;;;;;;;6278283;22;20016;-92
2022/10/18 07:15:10;;;;;;;159.90;22.80;;;;;;;;;;6267028;22;20047;-91
2022/10/18 07:21:19;;;;;;;190.30;27.42;;;;;;;;;;6240103;23;20249;-91
2022/10/18 07:23:46;;;;;;;103.30;23.40;;;;;;;;;;6239942;23;20030;-90
2022/10/18 07:26:15;;;;;;;60.05;19.67;;;;;;;;;;6236064;23;20035;-90
2022/10/18 07:28:42;;;;;;;77.57;21.13;;;;;;;;;;6224899;22;20024;-90
2022/10/18 07:34:18;;;;;;;75.38;20.23;;;;;;;;;;6270260;22;20024;-91
2022/10/18 07:36:56;;;;;;;112.88;23.38;;;;;;;;;;6245834;22;20031;-91
2022/10/18 07:39:22;;;;;;;99.45;23.40;;;;;;;;;;6270480;22;20282;-91
2022/10/18 07:41:49;;;;;;;49.53;19.10;;;;;;;;;;6244511;22;20019;-90
2022/10/18 07:44:24;;;;;;;51.05;18.27;;;;;;;;;;6243970;22;20016;-91
2022/10/18 07:46:56;;;;;;;42.10;20.83;;;;;;;;;;6271342;22;20302;-88
2022/10/18 07:49:22;;;;;;;54.30;21.27;;;;;;;;;;6245200;22;20039;-90
2022/10/18 07:51:48;;;;;;;45.45;21.33;;;;;;;;;;6272622;22;20294;-88
2022/10/18 07:54:33;;;;;;;47.33;21.60;;;;;;;;;;6268660;22;20020;-89
2022/10/18 07:56:59;;;;;;;34.90;20.02;;;;;;;;;;6272667;22;20515;-89
2022/10/18 07:59:25;;;;;;;33.10;17.95;;;;;;;;;;6270311;22;20045;-91
2022/10/18 08:01:51;;;;;;;28.88;17.42;;;;;;;;;;6245463;22;20132;-90
2022/10/18 08:04:17;;;;;;;29.10;18.13;;;;;;;;;;6244604;22;20022;-89
2022/10/18 08:06:45;;;;;;;30.95;17.95;;;;;;;;;;6245725;22;20026;-91
2022/10/18 08:09:11;;;;;;;27.83;16.52;;;;;;;;;;6242786;22;20020;-89
2022/10/18 08:12:08;;;;;;;28.83;16.92;;;;;;;;;;6245880;22;20015;-90
2022/10/18 08:14:34;;;;;;;23.33;16.77;;;;;;;;;;6271123;22;20344;-90
2022/10/18 08:33:07;;;;;;;24.42;12.02;;;;;;;;;;6245215;22;20026;-88
2022/10/18 08:35:54;;;;;;;21.77;12.02;;;;;;;;;;6218632;22;20022;-90
2022/10/18 08:38:51;;;;;;;17.02;10.18;;;;;;;;;;6220744;22;20510;-90
2022/10/18 08:44:16;;;;;;;20.05;10.27;;;;;;;;;;6312359;22;20053;-87
2022/10/18 08:47:07;;;;;;;19.67;10.02;;;;;;;;;;6281697;22;20072;-89
2022/10/18 08:49:58;;;;;;;20.15;8.38;;;;;;;;;;6332930;22;20579;-89
2022/10/18 08:56:28;;;;;;;25.77;6.47;;;;;;;;;;6288909;22;20035;-89
2022/10/18 09:57:55;;;;;;;20.10;3.78;;;;;;;;;;6271373;22;20028;-89
2022/10/18 10:28:21;;;;;;;14.52;2.58;;;;;;;;;;6266154;22;20042;-82
2022/10/18 10:31:16;;;;;;;19.20;2.63;;;;;;;;;;6246612;22;20028;-87
2022/10/18 10:33:42;;;;;;;;;;;;;;;;;;6216106;22;20019;-90
2022/10/18 10:36:27;;;;;;;10.93;2.03;;;;;;;;;;6246428;22;19967;-88
2022/10/18 10:52:02;;;;;;;11.43;2.40;;;;;;;;;;6248517;22;20024;-87
2022/10/18 11:11:13;;;;;;;19.63;2.63;;;;;;;;;;6210877;23;20035;-87
2022/10/18 11:13:43;;;;;;;14.30;2.80;;;;;;;;;;6162264;23;20086;-87
2022/10/18 11:16:16;;;;;;;17.88;2.75;;;;;;;;;;6162171;23;20380;-86
2022/10/18 11:18:58;;;;;;;15.70;3.03;;;;;;;;;;6161980;23;20016;-87
2022/10/18 11:21:46;;;;;;;17.75;2.70;;;;;;;;;;6160774;23;20452;-87
2022/10/18 11:24:24;;;;;;;11.48;2.53;;;;;;;;;;6186375;23;20357;-87
2022/10/18 11:30:44;;;;;;;14.63;2.13;;;;;;;;;;6217013;23;20074;-86
2022/10/18 11:34:10;;;;;;;12.98;2.00;;;;;;;;;;6188582;23;20020;-87
2022/10/18 11:49:45;;;;;;;15.13;3.22;;;;;;;;;;6277725;22;20015;-88
2022/10/18 11:56:07;;;;;;;13.43;2.33;;;19.10;99.90;;;;;;6294798;22;20269;-88
2022/10/18 12:05:34;;;;;;;11.38;2.10;;;;;;;;;;6308266;22;20386;-88
2022/10/18 12:11:32;;;;;;;;;;;;;;;;;;;;;
2022/10/18 12:14:02;;;;;;;8.80;2.08;;;;;;;;;;6314057;22;20041;-87
2022/10/18 12:16:55;;;;;;;14.30;2.30;;;;;;;;;;6279688;22;20023;-88
2022/10/18 12:19:50;;;;;;;19.60;2.80;;;;;;;;;;6300129;22;20010;-89
2022/10/18 12:29:07;;;;;;;16.52;2.58;;;;;;;;;;6160863;23;20076;-89
2022/10/18 12:35:14;;;;;;;17.77;2.70;;;;;;;;;;6160508;23;20028;-89
2022/10/18 12:38:07;;;;;;;12.13;2.55;;;;;;;;;;6178072;23;20024;-89
2022/10/18 12:40:40;;;;;;;12.87;2.60;;;;;;;;;;6171935;23;20029;-88
2022/10/18 12:43:25;;;;;;;18.88;3.00;;;;;;;;;;6124373;23;20248;-91
2022/10/18 12:52:21;;;;;;;;;;;;;;;;;;6310400;22;20021;-89
2022/10/18 13:00:46;;;;;;;15.20;3.08;;;;;;;;;;6328886;22;20023;-89
2022/10/18 13:06:19;;;;;;;10.43;2.20;;;;;;;;;;6330370;22;20015;-86
2022/10/18 13:09:10;;;;;;;22.85;3.83;;;;;;;;;;6273804;22;20026;-87
2022/10/18 13:11:49;;;;;;;14.90;2.13;;;;;;;;;;6275718;22;20027;-87
2022/10/18 13:31:45;;;;;;;15.45;3.22;;;;;;;;;;6330774;22;20006;-88
2022/10/18 13:34:23;;;;;;;18.17;2.95;;;;;;;;;;6291781;22;20019;-88
2022/10/18 14:11:24;;;;;;;10.40;2.50;;;;;;;;;;6269763;22;20034;-91
2022/10/18 14:14:12;;;;;;;13.98;1.85;;;;;;;;;;6272338;22;20020;-91
2022/10/18 14:16:41;;;;;;;10.40;2.13;;;;;;;;;;6292823;22;20011;-89
2022/10/18 14:19:43;;;;;;;11.82;2.25;;;;;;;;;;6268070;22;20030;-90
2022/10/18 14:26:08;;;;;;;19.27;3.83;;;;;;;;;;6301242;22;20058;-91
2022/10/18 14:32:22;;;;;;;13.25;2.03;;;;;;;;;;6150950;23;20021;-89
2022/10/18 14:35:08;;;;;;;11.52;2.05;;;;;;;;;;6168348;23;20021;-90
2022/10/18 14:37:37;;;;;;;12.05;2.53;;;;;;;;;;6106144;23;20024;-91
2022/10/18 14:43:54;;;;;;;11.35;1.50;;;;;;;;;;6302515;22;20026;-90
2022/10/18 14:46:48;;;;;;;9.95;1.55;;;;;;;;;;6299524;22;20046;-90
2022/10/18 14:49:15;;;;;;;11.10;2.03;;;;;;;;;;6243482;22;20051;-88
2022/10/18 14:55:04;;;;;;;13.45;1.98;;;;;;;;;;6298468;22;20335;-90
2022/10/18 15:14:24;;;;;;;11.93;2.13;;;;;;;;;;6284816;22;20035;-84
2022/10/18 15:16:52;;;;;;;14.55;2.00;;;;;;;;;;6246645;22;20047;-89
2022/10/18 15:25:33;;;;;;;8.73;1.60;;;;;;;;;;6326325;22;20039;-88
2022/10/18 15:38:39;;;;;;;10.23;1.73;;;;;;;;;;6352361;22;20059;-90
2022/10/18 16:32:09;;;;;;;11.77;2.30;;;;;;;;;;6323158;22;20033;-91
2022/10/18 17:02:47;;;;;;;6.00;1.60;;;;;;;;;;6332526;22;20034;-90
2022/10/18 17:08:22;;;;;;;9.43;1.75;;;;;;;;;;6306198;22;20176;-92
2022/10/18 17:19:11;;;;;;;9.43;1.45;;;;;;;;;;6322334;22;20053;-91
2022/10/18 17:25:24;;;;;;;8.73;2.67;;;;;;;;;;6351508;22;20067;-87
2022/10/18 17:28:06;;;;;;;7.80;1.50;;;;;;;;;;6293003;22;20074;-86
2022/10/18 17:30:45;;;;;;;4.85;0.90;;;;;;;;;;6296908;22;20019;-89
2022/10/18 17:33:13;;;;;;;4.50;1.08;;;;;;;;;;6297827;22;20018;-87
2022/10/18 17:35:40;;;;;;;6.03;1.08;;;;;;;;;;6301536;22;20017;-90
2022/10/18 17:41:27;;;;;;;5.38;1.30;;;;;;;;;;6324524;22;20025;-87
2022/10/18 17:44:16;;;;;;;6.63;1.25;;;;;;;;;;6347836;22;20018;-88
2022/10/18 17:46:56;;;;;;;4.05;0.80;;;;;;;;;;6325483;22;20022;-90
2022/10/18 17:49:22;;;;;;;4.25;1.38;;;;;;;;;;6298437;22;20094;-87
2022/10/18 17:51:49;;;;;;;3.78;1.00;;;;;;;;;;6327989;22;20023;-87
2022/10/18 17:55:06;;;;;;;3.38;0.90;;;13.90;99.90;;;;;;6299055;22;20011;-88
2022/10/18 17:57:32;;;;;;;4.65;1.10;;;;;;;;;;6297930;22;20023;-88
2022/10/18 18:00:10;;;;;;;7.47;1.10;;;;;;;;;;6296764;22;20389;-88
2022/10/18 18:06:32;;;;;;;4.78;1.30;;;;;;;;;;6354373;22;20131;-92
2022/10/18 18:09:18;;;;;;;5.00;1.55;;;;;;;;;;6323294;22;20039;-88
2022/10/18 18:11:59;;;;;;;4.72;1.20;;;;;;;;;;6302569;22;20492;-87
2022/10/18 18:14:28;;;;;;;4.25;1.30;;;;;;;;;;6301778;22;20580;-89
2022/10/18 18:17:27;;;;;;;6.43;1.73;;;;;;;;;;6298227;22;20038;-90
2022/10/18 18:19:54;;;;;;;4.53;1.20;;;;;;;;;;6294189;22;20027;-85
2022/10/18 18:22:51;;;;;;;8.95;2.03;;;;;;;;;;6322294;22;20023;-88
2022/10/18 18:28:58;;;;;;;11.75;3.67;;;;;;;;;;6321086;22;20052;-87
2022/10/18 18:31:49;;;;;;;12.82;2.30;;;13.70;99.90;;;;;;6292145;22;20069;-89
2022/10/18 18:34:25;;;;;;;9.40;2.10;;;;;;;;;;6292885;22;20084;-88
2022/10/18 18:36:53;;;;;;;9.80;2.65;;;;;;;;;;6268369;22;20016;-89
2022/10/18 18:39:58;;;;;;;8.10;1.67;;;;;;;;;;6267864;22;20023;-88
2022/10/18 18:52:00;;;;;;;8.10;2.40;;;;;;;;;;6321444;22;20025;-89
2022/10/18 18:54:29;;;;;;;11.30;3.65;;;;;;;;;;6267702;22;20019;-90
2022/10/18 18:57:10;;;;;;;8.00;2.58;;;;;;;;;;6316981;22;20023;-88
2022/10/18 19:00:05;;;;;;;;;;;;;;;;;;;;;
2022/10/18 19:02:34;;;;;;;11.00;3.08;;;;;;;;;;6319492;22;20467;-90
2022/10/18 19:08:17;;;;;;;;;;;13.60;99.90;;;;;;6225365;23;20055;-87
2022/10/18 19:10:47;;;;;;;5.72;1.20;;;;;;;;;;6200565;23;19919;-90
2022/10/18 19:13:26;;;;;;;8.30;1.80;;;;;;;;;;6140338;23;20049;-89
2022/10/18 19:16:23;;;;;;;4.65;1.42;;;;;;;;;;6113986;23;20026;-89
2022/10/18 19:18:50;;;;;;;9.32;1.98;;;;;;;;;;6162789;23;20048;-91
2022/10/18 19:21:35;;;;;;;9.45;1.75;;;;;;;;;;6132829;23;20097;-87
2022/10/18 19:24:21;;;;;;;5.20;1.83;;;;;;;;;;6162331;23;20489;-88
2022/10/18 19:26:54;;;;;;;4.35;1.10;;;;;;;;;;6132943;23;20017;-89
2022/10/18 19:29:22;;;;;;;8.83;1.50;;;;;;;;;;6136986;23;20096;-89
2022/10/18 19:32:03;;;;;;;4.63;1.10;;;;;;;;;;6134654;23;20333;-87
2022/10/18 19:34:42;;;;;;;12.90;1.25;;;;;;;;;;6161462;23;20021;-90
2022/10/18 19:37:14;;;;;;;11.70;1.95;;;;;;;;;;6138378;23;20021;-87
2022/10/18 19:40:18;;;;;;;12.75;1.98;;;;;;;;;;6256517;22;20071;-89
2022/10/18 19:42:44;;;;;;;12.35;1.70;;;;;;;;;;6256774;22;20020;-88
2022/10/18 19:45:23;;;;;;;9.77;1.55;;;;;;;;;;6304904;22;20033;-88
2022/10/18 19:47:59;;;;;;;14.95;2.08;;;;;;;;;;6289971;22;20023;-89
2022/10/18 19:50:25;;;;;;;12.65;2.03;;;;;;;;;;6316574;22;20019;-89
2022/10/18 19:52:57;;;;;;;12.73;2.13;;;;;;;;;;6289888;22;20019;-87
2022/10/18 19:55:30;;;;;;;10.00;1.52;;;;;;;;;;6289403;22;20039;-88
2022/10/18 19:57:59;;;;;;;13.43;1.58;;;;;;;;;;6317518;22;20045;-88
2022/10/18 20:03:48;;;;;;;7.25;1.40;;;;;;;;;;6320126;22;20488;-90
2022/10/18 20:06:29;;;;;;;17.08;1.65;;;;;;;;;;6318984;22;20023;-88
2022/10/18 20:09:11;;;;;;;8.57;1.45;;;;;;;;;;6319155;22;20023;-89
2022/10/18 20:11:59;;;;;;;15.95;2.65;;;;;;;;;;6315578;22;20019;-88
2022/10/18 20:14:35;;;;;;;8.25;1.30;;;;;;;;;;6317182;22;20019;-88
2022/10/18 20:17:24;;;;;;;15.65;2.63;;;;;;;;;;6318665;22;20019;-86
2022/10/18 20:20:03;;;;;;;12.75;1.50;;;;;;;;;;6298020;22;20042;-90
2022/10/18 20:22:43;;;;;;;15.35;1.40;;;;;;;;;;6323726;22;20080;-88
2022/10/18 20:25:19;;;;;;;8.43;1.30;;;;;;;;;;6302497;22;20018;-88
2022/10/18 20:30:45;;;;;;;8.73;1.17;;;;;;;;;;6314422;22;20027;-90
2022/10/18 20:33:26;;;;;;;12.77;1.30;;;;;;;;;;6223651;22;20451;-89
2022/10/18 20:36:13;;;;;;;10.55;1.60;;;;;;;;;;6302815;22;20023;-89
2022/10/18 20:39:10;;;;;;;7.28;1.98;;;;;;;;;;6282084;22;20095;-90
2022/10/18 20:41:55;;;;;;;7.05;1.20;;;;;;;;;;6275621;22;20339;-90
2022/10/18 20:44:32;;;;;;;5.25;1.80;;;;;;;;;;6277625;22;20015;-89
2022/10/18 20:47:23;;;;;;;5.38;0.98;;;;;;;;;;6254708;22;20015;-88
2022/10/18 20:49:58;;;;;;;8.00;1.35;;;;;;;;;;6251213;22;20034;-89
2022/10/18 20:52:30;;;;;;;6.15;1.30;;;;;;;;;;6275722;22;20019;-89
2022/10/18 20:55:12;;;;;;;5.57;0.98;;;;;;;;;;6250650;22;20023;-89
2022/10/18 20:58:08;;;;;;;6.28;1.02;;;;;;;;;;6303004;22;20347;-89
2022/10/18 21:00:38;;;;;;;4.50;1.10;;;;;;;;;;6251539;22;20015;-88
2022/10/18 21:03:13;;;;;;;10.40;1.17;;;;;;;;;;6250255;22;20019;-90
2022/10/18 21:06:04;;;;;;;11.25;1.42;;;;;;;;;;6284709;22;20452;-90
2022/10/18 21:08:30;;;;;;;5.13;0.82;;;;;;;;;;6301638;22;20031;-89
2022/10/18 21:11:15;;;;;;;6.60;1.02;;;;;;;;;;6302791;22;20015;-90
2022/10/18 21:13:41;;;;;;;5.95;1.73;;;;;;;;;;6304117;22;20455;-90
2022/10/18 21:16:08;;;;;;;5.28;1.20;;;;;;;;;;6303096;22;20142;-90
2022/10/18 21:18:35;;;;;;;4.95;1.23;;;;;;;;;;6274459;22;20019;-89
2022/10/18 21:21:09;;;;;;;6.30;1.35;;;;;;;;;;6278245;22;20019;-90
2022/10/18 21:23:38;;;;;;;9.50;1.98;;;;;;;;;;6299885;22;20094;-89
2022/10/18 21:26:04;;;;;;;6.80;2.33;;;;;;;;;;6275935;22;20348;-88
2022/10/18 21:28:43;;;;;;;11.20;1.90;;;;;;;;;;6301469;22;20027;-88
2022/10/18 21:31:22;;;;;;;5.75;1.45;;;;;;;;;;6274142;22;20015;-87
2022/10/18 21:33:52;;;;;;;6.65;1.70;;;;;;;;;;6302827;22;20513;-88
2022/10/18 21:36:18;;;;;;;7.38;1.98;;;;;;;;;;6302688;22;20043;-88
2022/10/18 21:38:44;;;;;;;9.00;2.50;;;;;;;;;;6275653;22;20022;-88
2022/10/18 21:41:26;;;;;;;6.72;1.70;;;;;;;;;;6300892;22;20125;-90
2022/10/18 21:43:53;;;;;;;7.47;1.98;;;;;;;;;;6275334;22;20058;-88
2022/10/18 21:46:20;;;;;;;10.18;1.75;;;;;;;;;;6274386;22;20055;-86
2022/10/18 21:48:47;;;;;;;8.68;1.58;;;;;;;;;;6304046;22;20041;-91
2022/10/18 21:51:15;;;;;;;8.85;1.80;;;;;;;;;;6299212;22;20027;-89
2022/10/18 21:53:47;;;;;;;6.90;2.40;;;;;;;;;;6302320;22;20492;-87
2022/10/18 21:56:33;;;;;;;8.13;1.58;;;;;;;;;;6299849;22;20026;-87
2022/10/18 21:59:00;;;;;;;7.18;1.58;;;;;;;;;;6301437;22;20019;-88
2022/10/18 22:01:27;;;;;;;4.80;1.15;;;;;;;;;;6300255;22;20030;-89
2022/10/18 22:03:54;;;;;;;7.50;1.05;;;;;;;;;;6306962;22;20046;-90
2022/10/18 22:06:39;;;;;;;5.57;0.90;;;;;;;;;;6253102;22;20026;-90
2022/10/18 22:09:36;;;;;;;6.38;0.90;;;;;;;;;;6299321;22;20054;-89
2022/10/18 22:12:03;;;;;;;6.85;1.10;;;;;;;;;;6271577;22;20339;-88
2022/10/18 22:14:58;;;;;;;7.57;1.02;;;;;;;;;;6297906;22;20055;-89
2022/10/18 22:17:25;;;;;;;;;;;;;;;;;;6298480;22;20105;-89
2022/10/18 22:19:57;;;;;;;5.30;0.90;;;;;;;;;;6274158;22;19930;-89
2022/10/18 22:25:51;;;;;;;6.60;1.20;;;;;;;;;;6305634;22;20017;-89
2022/10/18 22:28:29;;;;;;;12.65;2.85;;;;;;;;;;6313605;22;20026;-89
2022/10/18 22:30:55;;;;;;;11.15;3.58;;;;;;;;;;6315343;22;20046;-89
2022/10/18 22:33:21;;;;;;;12.48;3.20;;;;;;;;;;6291821;22;20131;-88
2022/10/18 22:38:41;;;;;;;15.25;2.78;;;;;;;;;;6304639;22;20025;-88
2022/10/18 22:41:22;;;;;;;16.40;2.83;;;;;;;;;;6303965;22;20019;-88
2022/10/18 22:43:54;;;;;;;10.70;3.20;;;;;;;;;;6299851;22;20443;-90
2022/10/18 22:46:35;;;;;;;16.13;2.67;;;;;;;;;;6299495;22;20460;-89
2022/10/18 22:52:18;;;;;;;6.63;1.90;;;;;;;;;;6300337;22;20081;-89
2022/10/18 22:54:46;;;;;;;8.93;2.38;;;;;;;;;;6281086;22;20015;-89
2022/10/18 22:57:38;;;;;;;7.68;2.10;;;;;;;;;;6257674;22;20116;-90
2022/10/18 23:02:39;;;;;;;6.15;2.00;;;;;;;;;;6336835;22;20026;-90
2022/10/18 23:05:05;;;;;;;9.40;2.72;;;;;;;;;;6281216;22;20023;-90
2022/10/18 23:10:25;;;;;;;7.45;1.40;;;;;;;;;;6305074;22;20099;-90
2022/10/18 23:13:07;;;;;;;7.75;1.15;;;;;;;;;;6306641;22;20026;-89
2022/10/18 23:15:42;;;;;;;8.85;1.15;;;;;;;;;;6283851;22;20026;-89
2022/10/18 23:18:16;;;;;;;5.78;1.38;;;;;;;;;;6306784;22;20022;-88
2022/10/18 23:20:48;;;;;;;8.68;1.40;;;;;;;;;;6306138;22;20027;-86
2022/10/18 23:23:20;;;;;;;7.45;1.85;;;;;;;;;;6280031;22;20459;-89
2022/10/18 23:25:56;;;;;;;8.73;1.20;;;;;;;;;;6308998;22;20030;-88
2022/10/18 23:28:25;;;;;;;4.70;1.17;;;;;;;;;;6280463;22;20030;-89
2022/10/18 23:31:10;;;;;;;4.68;1.27;;;;;;;;;;6254762;22;20019;-88
2022/10/18 23:33:37;;;;;;;11.23;1.30;;;;;;;;;;6332936;22;20018;-89
2022/10/18 23:36:15;;;;;;;12.23;1.50;;;;;;;;;;6305693;22;20014;-87
2022/10/18 23:38:47;;;;;;;10.27;1.70;;;;;;;;;;6306180;22;20023;-88
2022/10/18 23:41:24;;;;;;;;;;;;;;;;;;;;;
2022/10/18 23:44:15;;;;;;;8.63;1.05;;;;;;;;;;6306907;22;20072;-87
2022/10/18 23:47:02;;;;;;;6.32;1.23;;;;;;;;;;6304902;22;20025;-87
2022/10/18 23:49:43;;;;;;;6.78;1.10;;;;;;;;;;6333723;22;20463;-88
2022/10/18 23:52:12;;;;;;;11.85;1.33;;;;;;;;;;6305053;22;20018;-89
2022/10/18 23:54:44;;;;;;;3.75;1.00;;;;;;;;;;6306227;22;20071;-88
2022/10/18 23:57:11;;;;;;;13.60;1.48;;;;;;;;;;6278959;22;20019;-88
2022/10/18 23:59:44;;;;;;;6.15;0.93;;;;;;;;;;6333840;22;20025;-89
